Gordon Reid — CGBR — position and weather

sailwx.info

Track history (hours):
 
Tides and Currents Weather Stations Pressure Air Temp Water Temp Dewpoint Dewpoint Depression Visibility Wind Speed Wind Dir Waves Ship Positions

Gordon Reid

Last reported at 2018-Feb-18 08:00 UTC. Time now 2018-Feb-18 09:10 UTC.
Position N 48°42' W 123°30'.

Length 49.95 m; beam 11 m; draft 5.4 m.

Type: SAR. MMSI: 316094000.

Wind from 180 at 4 knots

Barometer 1001.1 mb
Air temperature 3.0 ° C
Dewpoint 4.3 ° C

Date/timePositionNaut miles runAvg speedWind from/ knotsBaromVisibWave heightAir tempDewpointWater temp
2018-Feb-18 08:00N 48°42' W 123°30'0 0.0 180 / 41001.1 3.0 4.3
2018-Feb-18 07:00N 48°42' W 123°30'0 0.0 200 / 61000.1 4.1 5.4
2018-Feb-18 06:00N 48°42' W 123°30'0 0.0 240 / 20999.6 5.4 6.7
2018-Feb-18 05:00N 48°42' W 123°30'0 0.0 240 / 19999.2 5.9 7.2
2018-Feb-18 04:00N 48°42' W 123°30'0 0.0 190 / 3999.5 6.2 7.5
2018-Feb-18 03:00N 48°42' W 123°30'0 0.0 180 / 3999.8 6.3 7.6
2018-Feb-18 02:00N 48°42' W 123°30'0 0.0 230 / 6999.9 7.2 8.6
2018-Feb-18 01:00N 48°42' W 123°30'0 0.0 260 / 91000.0 8.1 9.5
2018-Feb-18 00:00N 48°42' W 123°30'0 0.0 260 / 11999.8 8.2 9.6
2018-Feb-17 23:00N 48°42' W 123°30'0 0.0 240 / 26999.2 7.8 9.1
2018-Feb-17 22:00N 48°42' W 123°30'0 0.0 250 / 20998.9 7.9 9.2
2018-Feb-17 21:00N 48°42' W 123°30'0 0.0 210 / 14999.1 6.3 7.6
2018-Feb-17 20:00N 48°42' W 123°30'0 0.0 230 / 25999.6 6.6 7.9
2018-Feb-17 19:00N 48°42' W 123°30'0 0.0 230 / 29998.4 8.1 9.5
2018-Feb-17 18:00N 48°42' W 123°30'0 0.0 120 / 1999.4 5.0 6.3
2018-Feb-17 17:00N 48°42' W 123°30'0 0.0 1000.9 4.3 5.6
2018-Feb-17 16:00N 48°42' W 123°30'0 0.0 170 / 11003.0 3.4 4.6
2018-Feb-17 15:00N 48°42' W 123°30'0 0.0 140 / 21007.2 3.6 4.9
2018-Feb-17 14:00N 48°42' W 123°30'0 0.0 150 / 21010.3 4.0 5.3
2018-Feb-17 13:00N 48°42' W 123°30'0 0.0 160 / 21012.2 4.9 6.2
2018-Feb-17 12:00N 48°42' W 123°30'0 0.0 170 / 21013.6 5.1 6.4
2018-Feb-17 11:00N 48°42' W 123°30'0 0.0 160 / 11015.4 5.7 7.0
2018-Feb-17 10:00N 48°42' W 123°30'0 0.0 150 / 11017.0 5.6 6.9
2018-Feb-17 09:00N 48°42' W 123°30'0 0.0 100 / 11018.6 5.9 7.3
2018-Feb-17 08:00N 48°42' W 123°30'0 0.0 140 / 11019.5 5.7 7.0
2018-Feb-17 07:00N 48°42' W 123°30'0 0.0 190 / 11020.2 5.6 6.9
2018-Feb-17 06:00N 48°42' W 123°30'0 0.0 160 / 11020.6 5.6 6.9
2018-Feb-17 05:00N 48°42' W 123°30'0 0.0 180 / 11021.2 5.7 7.0
2018-Feb-17 04:00N 48°42' W 123°30'0 0.0 1021.8 6.6 7.9
2018-Feb-17 03:00N 48°42' W 123°30'0 0.0 1022.0 6.4 7.7
2018-Feb-17 02:00N 48°42' W 123°30'0 0.0 020 / 11021.8 6.7 8.0
2018-Feb-17 01:00N 48°42' W 123°30'0 0.0 150 / 11021.2 6.3 7.6
2018-Feb-17 00:00N 48°42' W 123°30'0 0.0 110 / 31021.2 6.7 8.0
2018-Feb-16 23:00N 48°42' W 123°30'0 0.0 110 / 41020.5 7.1 8.4
2018-Feb-16 22:00N 48°42' W 123°30'0 0.0 310 / 21020.6 7.4 8.7
2018-Feb-16 21:00N 48°42' W 123°30'0 0.0 230 / 11021.1 8.2 9.5
2018-Feb-16 20:00N 48°42' W 123°30'0 0.0 300 / 31021.4 7.7 9.1
2018-Feb-16 19:00N 48°42' W 123°30'0 0.0 310 / 51021.3 7.2 8.5
2018-Feb-16 18:00N 48°42' W 123°30'0 0.0 220 / 51020.8 6.2 7.5
2018-Feb-16 17:00N 48°42' W 123°30'0 0.0 340 / 11021.0 5.7 7.0
2018-Feb-16 16:00N 48°42' W 123°30'0 0.0 040 / 21021.2 5.5 6.8
2018-Feb-16 15:00N 48°42' W 123°30'0 0.0 240 / 41022.0 5.8 7.1
2018-Feb-16 14:00N 48°42' W 123°30'0 0.0 180 / 21022.2 4.6 5.8
2018-Feb-16 13:00N 48°42' W 123°30'0 0.0 140 / 21023.0 4.0 5.2
2018-Feb-16 12:00N 48°42' W 123°30'0 0.0 120 / 31024.3 4.1 5.3
2018-Feb-16 11:00N 48°42' W 123°30'0 0.0 160 / 21025.3 4.9 6.2
2018-Feb-16 10:00N 48°42' W 123°30'0 0.0 100 / 61026.0 4.7 6.0
2018-Feb-16 09:00N 48°42' W 123°30'0 0.0 170 / 21026.9 5.3 6.6
2018-Feb-16 08:00N 48°42' W 123°30'0 0.0 180 / 11027.6 5.5 6.8
2018-Feb-16 07:00N 48°42' W 123°30'0 0.0 130 / 21028.2 4.5 5.8
2018-Feb-16 06:00N 48°42' W 123°30'0 0.0 1028.9 5.0 6.3
2018-Feb-16 05:00N 48°42' W 123°30'0 0.0 1028.9 5.2 6.5
2018-Feb-16 04:00N 48°42' W 123°30'0 0.0 090 / 11029.3 5.2 6.5
2018-Feb-16 03:00N 48°42' W 123°30'0 0.0 350 / 21029.6 5.0 6.3
2018-Feb-16 02:00N 48°42' W 123°30'0 0.0 200 / 11030.0 4.9 6.2
2018-Feb-16 01:00N 48°42' W 123°30'0 0.0 110 / 21029.8 5.5 6.8
2018-Feb-16 00:00N 48°42' W 123°30'0 0.0 090 / 31029.8 5.6 6.9
2018-Feb-15 23:00N 48°42' W 123°30'0 0.0 050 / 31030.0 5.7 7.0
2018-Feb-15 22:00N 48°42' W 123°30'0 0.0 080 / 31030.0 5.5 6.8
2018-Feb-15 21:00N 48°42' W 123°30'0 0.0 030 / 31030.7 5.3 6.6
2018-Feb-15 20:00N 48°42' W 123°30'0 0.0 040 / 21031.0 5.4 6.7
2018-Feb-15 19:00N 48°42' W 123°30'0 0.0 280 / 31031.2 4.3 5.6
2018-Feb-15 18:00N 48°42' W 123°30'0 0.0 310 / 31030.9 4.2 5.5
2018-Feb-15 17:00N 48°42' W 123°30'0 0.0 280 / 41030.6 4.0 5.3
2018-Feb-15 16:00N 48°42' W 123°30'0 0.0 280 / 41030.0 3.9 5.1
2018-Feb-15 15:00N 48°42' W 123°30'0 0.0 280 / 41029.3 3.8 5.1
2018-Feb-15 14:00N 48°42' W 123°30'0 0.0 290 / 41028.5 3.4 4.6
2018-Feb-15 13:00N 48°42' W 123°30'0 0.0 250 / 41028.0 3.6 4.9
2018-Feb-15 12:00N 48°42' W 123°30'0 0.0 260 / 71027.3 3.8 5.1
2018-Feb-15 11:00N 48°42' W 123°30'0 0.0 260 / 31027.1 3.7 5.0
2018-Feb-15 10:00N 48°42' W 123°30'0 0.0 290 / 31026.8 3.8 5.0
2018-Feb-15 09:00N 48°42' W 123°30'0 0.0 300 / 21026.2 4.4 5.7
2018-Feb-15 08:00N 48°42' W 123°30'0 0.0 310 / 21025.4 4.6 5.9
2018-Feb-15 07:00N 48°42' W 123°30'0 0.0 280 / 31024.6 4.4 5.7
2018-Feb-15 06:00N 48°42' W 123°30'0 0.0 1023.5 3.5 4.7
2018-Feb-15 05:00N 48°42' W 123°30'0 0.0 040 / 21022.6 4.7 6.0
2018-Feb-15 04:00N 48°42' W 123°30'0 0.0 020 / 11021.9 4.7 5.9
2018-Feb-15 03:00N 48°42' W 123°30'0 0.0 1021.8 4.6 5.9
2018-Feb-15 02:00N 48°42' W 123°30'0 0.0 100 / 31021.1 5.8 7.1
2018-Feb-15 01:00N 48°42' W 123°30'0 0.0 120 / 21020.2 7.4 8.7
2018-Feb-15 00:00N 48°42' W 123°30'0 0.0 210 / 31019.9 8.2 9.6
2018-Feb-14 23:00N 48°42' W 123°30'0 0.0 280 / 71019.5 7.6 8.9
2018-Feb-14 22:00N 48°42' W 123°30'0 0.0 290 / 71019.2 6.9 8.3
2018-Feb-14 21:00N 48°42' W 123°30'0 0.0 300 / 61019.1 6.5 7.8
2018-Feb-14 20:00N 48°42' W 123°30'0 0.0 320 / 91019.0 6.0 7.3
2018-Feb-14 19:00N 48°42' W 123°30'0 0.0 320 / 91018.6 5.3 6.6
2018-Feb-14 18:00N 48°42' W 123°30'0 0.0 310 / 111017.9 4.8 6.1
2018-Feb-14 17:00N 48°42' W 123°30'0 0.0 310 / 111017.2 4.5 5.8
2018-Feb-14 16:00N 48°42' W 123°30'0 0.0 350 / 31016.2 3.8 5.0
2018-Feb-14 15:00N 48°42' W 123°30'0 0.0 360 / 51015.2 3.9 5.2
2018-Feb-14 14:00N 48°42' W 123°30'0 0.0 290 / 141014.4 4.1 5.4
2018-Feb-14 13:00N 48°42' W 123°30'0 0.0 290 / 131013.8 4.4 5.7
2018-Feb-14 12:00N 48°42' W 123°30'0 0.0 250 / 71013.2 4.2 5.5
2018-Feb-14 11:00N 48°42' W 123°30'0 0.0 140 / 11013.4 3.9 5.2
2018-Feb-14 10:00N 48°42' W 123°30'0 0.0 120 / 41013.6 3.9 5.1
2018-Feb-14 09:00N 48°42' W 123°30'0 0.0 140 / 21013.8 3.7 4.9
2018-Feb-14 08:00N 48°42' W 123°30'0 0.0 120 / 21014.6 3.6 4.8
2018-Feb-14 07:00N 48°42' W 123°30'0 0.0 150 / 31015.2 3.9 5.1
2018-Feb-14 06:00N 48°42' W 123°30'0 0.0 1015.2 5.1 6.4
2018-Feb-14 05:00N 48°42' W 123°30'0 0.0 180 / 21016.3 5.1 6.4
2018-Feb-14 04:00N 48°42' W 123°30'0 0.0 1017.4 4.3 5.6
2018-Feb-14 03:00N 48°42' W 123°30'0 0.0 150 / 11018.3 4.7 6.0
2018-Feb-14 02:00N 48°42' W 123°30'0 0.0 140 / 11018.4 4.6 5.9
2018-Feb-14 01:00N 48°42' W 123°30'0 0.0 110 / 21019.6 5.1 6.4
2018-Feb-14 00:00N 48°42' W 123°30'0 0.0 100 / 11020.7 6.0 7.3
2018-Feb-13 23:00N 48°42' W 123°30'0 0.0 120 / 21021.3 5.6 6.9
2018-Feb-13 22:00N 48°42' W 123°30'0 0.0 180 / 11022.1 5.9 7.2
2018-Feb-13 21:00N 48°42' W 123°30'0 0.0 120 / 41023.6 5.0 6.3
2018-Feb-13 20:00N 48°42' W 123°30'0 0.0 120 / 41024.6 4.5 5.8
2018-Feb-13 19:00N 48°42' W 123°30'0 0.0 250 / 11025.7 3.3 4.6
2018-Feb-13 18:00N 48°42' W 123°30'0 0.0 340 / 11026.1 2.2 3.5
2018-Feb-13 17:00N 48°42' W 123°30'0 0.0 270 / 31027.0 1.1 2.3
2018-Feb-13 16:00N 48°42' W 123°30'0 0.0 300 / 41027.0 0.9 2.1
2018-Feb-13 15:00N 48°42' W 123°30'0 0.0 290 / 21027.0 0.8 2.0
2018-Feb-13 14:00N 48°42' W 123°30'0 0.0 280 / 61027.6 0.8 2.1
2018-Feb-13 13:00N 48°42' W 123°30'0 0.0 280 / 11027.4 0.8 2.0
2018-Feb-13 12:00N 48°42' W 123°30'0 0.0 300 / 51028.2 1.2 2.4
2018-Feb-13 11:00N 48°42' W 123°30'0 0.0 310 / 31028.4 1.3 2.5
2018-Feb-13 10:00N 48°42' W 123°30'0 0.0 240 / 41028.6 1.4 2.6
2018-Feb-13 09:00N 48°42' W 123°30'0 0.0 230 / 21028.6 1.1 2.3
2018-Feb-13 08:00N 48°42' W 123°30'0 0.0 250 / 51028.8 1.8 3.0
2018-Feb-13 07:00N 48°42' W 123°30'0 0.0 1028.9 1.9 3.1
2018-Feb-13 06:00N 48°42' W 123°30'0 0.0 230 / 21028.9 2.0 3.3
2018-Feb-13 05:00N 48°42' W 123°30'0 0.0 1028.6 1.6 2.8
2018-Feb-13 04:00N 48°42' W 123°30'0 0.0 050 / 11028.4 1.8 3.1
2018-Feb-13 03:00N 48°42' W 123°30'0 0.0 1028.2 2.3 3.5
2018-Feb-13 02:00N 48°42' W 123°30'0 0.0 1028.0 3.4 4.7
2018-Feb-13 01:00N 48°42' W 123°30'0 0.0 110 / 21027.7 5.3 6.6
2018-Feb-13 00:00N 48°42' W 123°30'0 0.0 100 / 31027.7 5.4 6.8
2018-Feb-12 23:00N 48°42' W 123°30'0 0.0 100 / 41027.7 5.2 6.5
2018-Feb-12 22:00N 48°42' W 123°30'0 0.0 080 / 21028.1 5.4 6.7
2018-Feb-12 21:00N 48°42' W 123°30'0 0.0 110 / 11028.5 4.6 5.9
2018-Feb-12 19:00N 48°42' W 123°30'0 0.0 060 / 51029.1 3.1 4.3
2018-Feb-12 18:00N 48°42' W 123°30'0 0.0 060 / 61028.5 2.8 4.1
2018-Feb-12 17:00N 48°42' W 123°30'0 0.0 040 / 51028.3 3.2 4.5
2018-Feb-12 16:00N 48°42' W 123°30'0 0.0 1027.8 1.6 2.9
2018-Feb-12 15:00N 48°42' W 123°30'0 0.0 1027.8 2.2 3.4
2018-Feb-12 14:00N 48°42' W 123°30'0 0.0 050 / 41027.5 3.1 4.3
2018-Feb-12 13:00N 48°42' W 123°30'0 0.0 070 / 91026.7 3.0 4.3
2018-Feb-12 12:00N 48°42' W 123°30'0 0.0 070 / 71026.4 3.0 4.3
2018-Feb-12 11:00N 48°42' W 123°30'0 0.0 060 / 91025.6 3.5 4.8
2018-Feb-12 10:00N 48°42' W 123°30'0 0.0 060 / 81025.6 4.0 5.3
2018-Feb-12 09:00N 48°42' W 123°30'0 0.0 060 / 61024.8 4.5 5.7
2018-Feb-12 08:00N 48°42' W 123°30'0 0.0 070 / 41023.9 4.5 5.8
2018-Feb-12 07:00N 48°42' W 123°30'0 0.0 050 / 71022.7 5.3 6.6
2018-Feb-12 06:00N 48°42' W 123°30'0 0.0 080 / 71022.1 5.3 6.6
2018-Feb-12 05:00N 48°42' W 123°30'0 0.0 050 / 51021.0 5.5 6.8
2018-Feb-12 04:00N 48°42' W 123°30'0 0.0 060 / 21019.8 5.4 6.6
2018-Feb-12 03:00N 48°42' W 123°30'0 0.0 1018.6 5.2 6.5
2018-Feb-12 02:00N 48°42' W 123°30'0 0.0 030 / 51017.5 5.7 7.0
2018-Feb-12 01:00N 48°42' W 123°30'0 0.0 010 / 61016.8 6.8 8.1
2018-Feb-12 00:00N 48°42' W 123°30'0 0.0 040 / 51016.4 7.4 8.8
2018-Feb-11 19:00N 48°42' W 123°30'0 0.0 300 / 51016.4 4.4 5.6
2018-Feb-11 18:00N 48°42' W 123°30'0 0.0 260 / 31016.0 4.1 5.3
2018-Feb-11 17:00N 48°42' W 123°30'0 0.0 340 / 41016.1 3.9 5.1
2018-Feb-11 16:00N 48°42' W 123°30'0 0.0 340 / 51015.9 3.8 5.0
2018-Feb-11 15:00N 48°42' W 123°30'0 0.0 300 / 51015.6 3.5 4.7
2018-Feb-11 14:00N 48°42' W 123°30'0 0.0 260 / 41015.9 3.4 4.6
2018-Feb-11 13:00N 48°42' W 123°30'0 0.0 300 / 41016.4 3.3 4.6
2018-Feb-11 12:00N 48°42' W 123°30'0 0.0 310 / 31017.2 3.1 4.3
2018-Feb-11 11:00N 48°42' W 123°30'0 0.0 300 / 51018.0 3.2 4.5
2018-Feb-11 10:00N 48°42' W 123°30'0 0.0 300 / 61018.7 3.1 4.4
2018-Feb-11 07:00N 48°42' W 123°30'0 0.0 280 / 21022.2 4.1 5.3
2018-Feb-11 06:00N 48°42' W 123°30'0 0.0 030 / 21023.5 3.8 5.1
2018-Feb-11 05:00N 48°42' W 123°30'0 0.0 200 / 21024.6 4.1 5.4
2018-Feb-11 04:00N 48°42' W 123°30'0 0.0 050 / 11025.2 4.2 5.4
2018-Feb-11 03:00N 48°42' W 123°30'0 0.0 1026.0 4.0 5.3
2018-Feb-11 02:00N 48°42' W 123°30'0 0.0 100 / 31026.9 4.7 6.0
2018-Feb-11 01:00N 48°42' W 123°30'0 0.0 150 / 11027.1 4.9 6.2
2018-Feb-11 00:00N 48°42' W 123°30'0 0.0 140 / 11028.5 5.1 6.4
2018-Feb-10 23:00N 48°42' W 123°30'0 0.0 110 / 41028.8 5.3 6.6
2018-Feb-10 22:00N 48°42' W 123°30'0 0.0 110 / 51029.4 5.7 7.0
2018-Feb-10 21:00N 48°42' W 123°30'0 0.0 130 / 11030.3 5.6 6.9
2018-Feb-10 20:00N 48°42' W 123°30'0 0.0 350 / 11031.3 4.9 6.2
2018-Feb-10 19:00N 48°42' W 123°30'0 0.0 090 / 31031.7 4.6 5.9
2018-Feb-10 18:00N 48°42' W 123°30'0 0.0 090 / 21031.6 4.3 5.6
2018-Feb-10 17:00N 48°42' W 123°30'0 0.0 120 / 11031.6 3.8 5.1
2018-Feb-10 16:00N 48°42' W 123°30'0 0.0 110 / 21031.3 3.2 4.5
2018-Feb-10 15:00N 48°42' W 123°30'0 0.0 1031.0 3.3 4.6
2018-Feb-10 14:00N 48°42' W 123°30'0 0.0 100 / 31031.1 3.7 4.9
2018-Feb-10 13:00N 48°42' W 123°30'0 0.0 030 / 11030.8 3.6 4.8
2018-Feb-10 12:00N 48°42' W 123°30'0 0.0 080 / 21030.2 3.4 4.7
2018-Feb-10 11:00N 48°42' W 123°30'0 0.0 020 / 21029.8 3.4 4.7
2018-Feb-10 10:00N 48°42' W 123°30'0 0.0 340 / 41029.6 4.1 5.3
2018-Feb-10 09:00N 48°42' W 123°30'0 0.0 010 / 61029.2 4.8 6.1
2018-Feb-10 08:00N 48°42' W 123°30'0 0.0 010 / 21028.9 4.9 6.2
2018-Feb-10 07:00N 48°42' W 123°30'0 0.0 360 / 21028.6 4.9 6.2
2018-Feb-10 06:00N 48°42' W 123°30'0 0.0 040 / 21027.8 4.6 5.8
2018-Feb-10 05:00N 48°42' W 123°30'0 0.0 070 / 41027.5 4.2 5.5
2018-Feb-10 04:00N 48°42' W 123°30'0 0.0 040 / 31027.2 4.7 6.0
2018-Feb-10 03:00N 48°42' W 123°30'0 0.0 060 / 21026.8 5.7 6.9
2018-Feb-10 02:00N 48°42' W 123°30'0 0.0 050 / 31026.2 6.0 7.3
2018-Feb-10 01:00N 48°42' W 123°30'0 0.0 080 / 51026.2 6.2 7.5
2018-Feb-10 00:00N 48°42' W 123°30'0 0.0 060 / 71026.1 6.1 7.4
2018-Feb-09 23:00N 48°42' W 123°30'0 0.0 070 / 61026.0 6.3 7.6
2018-Feb-09 22:00N 48°42' W 123°30'0 0.0 060 / 71025.9 6.7 8.0
2018-Feb-09 21:00N 48°42' W 123°30'0 0.0 030 / 51026.3 7.0 8.4
2018-Feb-09 20:00N 48°42' W 123°30'0 0.0 230 / 11026.6 6.9 8.2
2018-Feb-09 19:00N 48°42' W 123°30'0 0.0 1026.8 5.9 7.2
2018-Feb-09 18:00N 48°42' W 123°30'0 0.0 280 / 11026.6 4.5 5.7
2018-Feb-09 17:00N 48°42' W 123°30'0 0.0 260 / 21026.3 4.1 5.3
2018-Feb-09 16:00N 48°42' W 123°30'0 0.0 240 / 51026.1 3.3 4.5
2018-Feb-09 15:00N 48°42' W 123°30'0 0.0 300 / 21025.6 3.8 5.0
2018-Feb-09 14:00N 48°42' W 123°30'0 0.0 300 / 31025.7 4.1 5.4
2018-Feb-09 13:00N 48°42' W 123°30'0 0.0 280 / 51025.6 4.1 5.4
2018-Feb-09 12:00N 48°42' W 123°30'0 0.0 290 / 71025.3 4.5 5.8
2018-Feb-09 11:00N 48°42' W 123°30'0 0.0 270 / 51025.0 5.0 6.3
2018-Feb-09 10:00N 48°42' W 123°30'0 0.0 330 / 41024.5 5.6 6.9
2018-Feb-09 09:00N 48°42' W 123°30'0 0.0 300 / 61024.2 6.0 7.3
2018-Feb-09 08:00N 48°42' W 123°30'0 0.0 300 / 51024.1 6.7 8.0
2018-Feb-09 07:00N 48°42' W 123°30'0 0.0 310 / 51023.9 6.5 7.8
2018-Feb-09 06:00N 48°42' W 123°30'0 0.0 290 / 51023.1 6.8 8.1
2018-Feb-09 05:00N 48°42' W 123°30'0 0.0 210 / 21022.6 7.2 8.5
2018-Feb-09 04:00N 48°42' W 123°30'0 0.0 200 / 21022.5 7.8 9.1
2018-Feb-09 03:00N 48°42' W 123°30'0 0.0 270 / 61022.2 8.710.1
2018-Feb-09 02:00N 48°42' W 123°30'0 0.0 280 / 91021.5 9.611.0
2018-Feb-09 01:00N 48°42' W 123°30'0 0.0 270 / 91020.8 10.311.7
2018-Feb-09 00:00N 48°42' W 123°30'0 0.0 240 / 111020.6 11.112.5
2018-Feb-08 23:00N 48°42' W 123°30'0 0.0 240 / 141020.1 11.312.7
2018-Feb-08 22:00N 48°42' W 123°30'0 0.0 240 / 161020.0 11.212.6
2018-Feb-08 21:00N 48°42' W 123°30'0 0.0 240 / 191019.7 11.412.8
2018-Feb-08 20:00N 48°42' W 123°30'0 0.0 250 / 61019.9 11.613.0
2018-Feb-08 19:00N 48°42' W 123°30'0 0.0 210 / 31020.1 11.312.7
2018-Feb-08 18:00N 48°42' W 123°30'0 0.0 240 / 91019.9 10.912.3
2018-Feb-08 17:00N 48°42' W 123°30'0 0.0 180 / 11018.8 10.211.6
2018-Feb-08 16:00N 48°42' W 123°30'0 0.0 210 / 31019.0 10.011.4
2018-Feb-08 15:00N 48°42' W 123°30'0 0.0 240 / 61018.8 9.911.2
2018-Feb-08 14:00N 48°42' W 123°30'0 0.0 240 / 141018.5 10.712.1
2018-Feb-08 13:00N 48°42' W 123°30'0 0.0 220 / 61019.0 11.012.4
2018-Feb-08 12:00N 48°42' W 123°30'0 0.0 200 / 61018.9 11.112.5
2018-Feb-08 11:00N 48°42' W 123°30'0 0.0 210 / 81019.7 11.212.6
2018-Feb-08 10:00N 48°42' W 123°30'0 0.0 190 / 71019.7 10.812.2
2018-Feb-08 09:00N 48°42' W 123°30'0 0.0 140 / 31019.6 8.710.1
2018-Feb-08 08:00N 48°42' W 123°30'   170 / 21020.3 9.310.7
Track history (hours):
 
Tides and Currents Weather Stations Pressure Air Temp Water Temp Dewpoint Dewpoint Depression Visibility Wind Speed Wind Dir Waves Ship Positions

Gordon Reid

Last reported at 2018-Feb-18 08:00 UTC. Time now 2018-Feb-18 09:10 UTC.
Position N 48°42' W 123°30'.

Length 49.95 m; beam 11 m; draft 5.4 m.

Type: SAR. MMSI: 316094000.

Wind from 180 at 4 knots

Barometer 1001.1 mb
Air temperature 3.0 ° C
Dewpoint 4.3 ° C

Date/timePositionNaut miles runAvg speedWind from/ knotsBaromVisibWave heightAir tempDewpointWater temp
2018-Feb-18 08:00N 48°42' W 123°30'0 0.0 180 / 41001.1 3.0 4.3
2018-Feb-18 07:00N 48°42' W 123°30'0 0.0 200 / 61000.1 4.1 5.4
2018-Feb-18 06:00N 48°42' W 123°30'0 0.0 240 / 20999.6 5.4 6.7
2018-Feb-18 05:00N 48°42' W 123°30'0 0.0 240 / 19999.2 5.9 7.2
2018-Feb-18 04:00N 48°42' W 123°30'0 0.0 190 / 3999.5 6.2 7.5
2018-Feb-18 03:00N 48°42' W 123°30'0 0.0 180 / 3999.8 6.3 7.6
2018-Feb-18 02:00N 48°42' W 123°30'0 0.0 230 / 6999.9 7.2 8.6
2018-Feb-18 01:00N 48°42' W 123°30'0 0.0 260 / 91000.0 8.1 9.5
2018-Feb-18 00:00N 48°42' W 123°30'0 0.0 260 / 11999.8 8.2 9.6
2018-Feb-17 23:00N 48°42' W 123°30'0 0.0 240 / 26999.2 7.8 9.1
2018-Feb-17 22:00N 48°42' W 123°30'0 0.0 250 / 20998.9 7.9 9.2
2018-Feb-17 21:00N 48°42' W 123°30'0 0.0 210 / 14999.1 6.3 7.6
2018-Feb-17 20:00N 48°42' W 123°30'0 0.0 230 / 25999.6 6.6 7.9
2018-Feb-17 19:00N 48°42' W 123°30'0 0.0 230 / 29998.4 8.1 9.5
2018-Feb-17 18:00N 48°42' W 123°30'0 0.0 120 / 1999.4 5.0 6.3
2018-Feb-17 17:00N 48°42' W 123°30'0 0.0 1000.9 4.3 5.6
2018-Feb-17 16:00N 48°42' W 123°30'0 0.0 170 / 11003.0 3.4 4.6
2018-Feb-17 15:00N 48°42' W 123°30'0 0.0 140 / 21007.2 3.6 4.9
2018-Feb-17 14:00N 48°42' W 123°30'0 0.0 150 / 21010.3 4.0 5.3
2018-Feb-17 13:00N 48°42' W 123°30'0 0.0 160 / 21012.2 4.9 6.2
2018-Feb-17 12:00N 48°42' W 123°30'0 0.0 170 / 21013.6 5.1 6.4
2018-Feb-17 11:00N 48°42' W 123°30'0 0.0 160 / 11015.4 5.7 7.0
2018-Feb-17 10:00N 48°42' W 123°30'0 0.0 150 / 11017.0 5.6 6.9
2018-Feb-17 09:00N 48°42' W 123°30'0 0.0 100 / 11018.6 5.9 7.3
2018-Feb-17 08:00N 48°42' W 123°30'0 0.0 140 / 11019.5 5.7 7.0
2018-Feb-17 07:00N 48°42' W 123°30'0 0.0 190 / 11020.2 5.6 6.9
2018-Feb-17 06:00N 48°42' W 123°30'0 0.0 160 / 11020.6 5.6 6.9
2018-Feb-17 05:00N 48°42' W 123°30'0 0.0 180 / 11021.2 5.7 7.0
2018-Feb-17 04:00N 48°42' W 123°30'0 0.0 1021.8 6.6 7.9
2018-Feb-17 03:00N 48°42' W 123°30'0 0.0 1022.0 6.4 7.7
2018-Feb-17 02:00N 48°42' W 123°30'0 0.0 020 / 11021.8 6.7 8.0
2018-Feb-17 01:00N 48°42' W 123°30'0 0.0 150 / 11021.2 6.3 7.6
2018-Feb-17 00:00N 48°42' W 123°30'0 0.0 110 / 31021.2 6.7 8.0
2018-Feb-16 23:00N 48°42' W 123°30'0 0.0 110 / 41020.5 7.1 8.4
2018-Feb-16 22:00N 48°42' W 123°30'0 0.0 310 / 21020.6 7.4 8.7
2018-Feb-16 21:00N 48°42' W 123°30'0 0.0 230 / 11021.1 8.2 9.5
2018-Feb-16 20:00N 48°42' W 123°30'0 0.0 300 / 31021.4 7.7 9.1
2018-Feb-16 19:00N 48°42' W 123°30'0 0.0 310 / 51021.3 7.2 8.5
2018-Feb-16 18:00N 48°42' W 123°30'0 0.0 220 / 51020.8 6.2 7.5
2018-Feb-16 17:00N 48°42' W 123°30'0 0.0 340 / 11021.0 5.7 7.0
2018-Feb-16 16:00N 48°42' W 123°30'0 0.0 040 / 21021.2 5.5 6.8
2018-Feb-16 15:00N 48°42' W 123°30'0 0.0 240 / 41022.0 5.8 7.1
2018-Feb-16 14:00N 48°42' W 123°30'0 0.0 180 / 21022.2 4.6 5.8
2018-Feb-16 13:00N 48°42' W 123°30'0 0.0 140 / 21023.0 4.0 5.2
2018-Feb-16 12:00N 48°42' W 123°30'0 0.0 120 / 31024.3 4.1 5.3
2018-Feb-16 11:00N 48°42' W 123°30'0 0.0 160 / 21025.3 4.9 6.2
2018-Feb-16 10:00N 48°42' W 123°30'0 0.0 100 / 61026.0 4.7 6.0
2018-Feb-16 09:00N 48°42' W 123°30'0 0.0 170 / 21026.9 5.3 6.6
2018-Feb-16 08:00N 48°42' W 123°30'0 0.0 180 / 11027.6 5.5 6.8
2018-Feb-16 07:00N 48°42' W 123°30'0 0.0 130 / 21028.2 4.5 5.8
2018-Feb-16 06:00N 48°42' W 123°30'0 0.0 1028.9 5.0 6.3
2018-Feb-16 05:00N 48°42' W 123°30'0 0.0 1028.9 5.2 6.5
2018-Feb-16 04:00N 48°42' W 123°30'0 0.0 090 / 11029.3 5.2 6.5
2018-Feb-16 03:00N 48°42' W 123°30'0 0.0 350 / 21029.6 5.0 6.3
2018-Feb-16 02:00N 48°42' W 123°30'0 0.0 200 / 11030.0 4.9 6.2
2018-Feb-16 01:00N 48°42' W 123°30'0 0.0 110 / 21029.8 5.5 6.8
2018-Feb-16 00:00N 48°42' W 123°30'0 0.0 090 / 31029.8 5.6 6.9
2018-Feb-15 23:00N 48°42' W 123°30'0 0.0 050 / 31030.0 5.7 7.0
2018-Feb-15 22:00N 48°42' W 123°30'0 0.0 080 / 31030.0 5.5 6.8
2018-Feb-15 21:00N 48°42' W 123°30'0 0.0 030 / 31030.7 5.3 6.6
2018-Feb-15 20:00N 48°42' W 123°30'0 0.0 040 / 21031.0 5.4 6.7
2018-Feb-15 19:00N 48°42' W 123°30'0 0.0 280 / 31031.2 4.3 5.6
2018-Feb-15 18:00N 48°42' W 123°30'0 0.0 310 / 31030.9 4.2 5.5
2018-Feb-15 17:00N 48°42' W 123°30'0 0.0 280 / 41030.6 4.0 5.3
2018-Feb-15 16:00N 48°42' W 123°30'0 0.0 280 / 41030.0 3.9 5.1
2018-Feb-15 15:00N 48°42' W 123°30'0 0.0 280 / 41029.3 3.8 5.1
2018-Feb-15 14:00N 48°42' W 123°30'0 0.0 290 / 41028.5 3.4 4.6
2018-Feb-15 13:00N 48°42' W 123°30'0 0.0 250 / 41028.0 3.6 4.9
2018-Feb-15 12:00N 48°42' W 123°30'0 0.0 260 / 71027.3 3.8 5.1
2018-Feb-15 11:00N 48°42' W 123°30'0 0.0 260 / 31027.1 3.7 5.0
2018-Feb-15 10:00N 48°42' W 123°30'0 0.0 290 / 31026.8 3.8 5.0
2018-Feb-15 09:00N 48°42' W 123°30'0 0.0 300 / 21026.2 4.4 5.7
2018-Feb-15 08:00N 48°42' W 123°30'0 0.0 310 / 21025.4 4.6 5.9
2018-Feb-15 07:00N 48°42' W 123°30'0 0.0 280 / 31024.6 4.4 5.7
2018-Feb-15 06:00N 48°42' W 123°30'0 0.0 1023.5 3.5 4.7
2018-Feb-15 05:00N 48°42' W 123°30'0 0.0 040 / 21022.6 4.7 6.0
2018-Feb-15 04:00N 48°42' W 123°30'0 0.0 020 / 11021.9 4.7 5.9
2018-Feb-15 03:00N 48°42' W 123°30'0 0.0 1021.8 4.6 5.9
2018-Feb-15 02:00N 48°42' W 123°30'0 0.0 100 / 31021.1 5.8 7.1
2018-Feb-15 01:00N 48°42' W 123°30'0 0.0 120 / 21020.2 7.4 8.7
2018-Feb-15 00:00N 48°42' W 123°30'0 0.0 210 / 31019.9 8.2 9.6
2018-Feb-14 23:00N 48°42' W 123°30'0 0.0 280 / 71019.5 7.6 8.9
2018-Feb-14 22:00N 48°42' W 123°30'0 0.0 290 / 71019.2 6.9 8.3
2018-Feb-14 21:00N 48°42' W 123°30'0 0.0 300 / 61019.1 6.5 7.8
2018-Feb-14 20:00N 48°42' W 123°30'0 0.0 320 / 91019.0 6.0 7.3
2018-Feb-14 19:00N 48°42' W 123°30'0 0.0 320 / 91018.6 5.3 6.6
2018-Feb-14 18:00N 48°42' W 123°30'0 0.0 310 / 111017.9 4.8 6.1
2018-Feb-14 17:00N 48°42' W 123°30'0 0.0 310 / 111017.2 4.5 5.8
2018-Feb-14 16:00N 48°42' W 123°30'0 0.0 350 / 31016.2 3.8 5.0
2018-Feb-14 15:00N 48°42' W 123°30'0 0.0 360 / 51015.2 3.9 5.2
2018-Feb-14 14:00N 48°42' W 123°30'0 0.0 290 / 141014.4 4.1 5.4
2018-Feb-14 13:00N 48°42' W 123°30'0 0.0 290 / 131013.8 4.4 5.7
2018-Feb-14 12:00N 48°42' W 123°30'0 0.0 250 / 71013.2 4.2 5.5
2018-Feb-14 11:00N 48°42' W 123°30'0 0.0 140 / 11013.4 3.9 5.2
2018-Feb-14 10:00N 48°42' W 123°30'0 0.0 120 / 41013.6 3.9 5.1
2018-Feb-14 09:00N 48°42' W 123°30'0 0.0 140 / 21013.8 3.7 4.9
2018-Feb-14 08:00N 48°42' W 123°30'0 0.0 120 / 21014.6 3.6 4.8
2018-Feb-14 07:00N 48°42' W 123°30'0 0.0 150 / 31015.2 3.9 5.1
2018-Feb-14 06:00N 48°42' W 123°30'0 0.0 1015.2 5.1 6.4
2018-Feb-14 05:00N 48°42' W 123°30'0 0.0 180 / 21016.3 5.1 6.4
2018-Feb-14 04:00N 48°42' W 123°30'0 0.0 1017.4 4.3 5.6
2018-Feb-14 03:00N 48°42' W 123°30'0 0.0 150 / 11018.3 4.7 6.0
2018-Feb-14 02:00N 48°42' W 123°30'0 0.0 140 / 11018.4 4.6 5.9
2018-Feb-14 01:00N 48°42' W 123°30'0 0.0 110 / 21019.6 5.1 6.4
2018-Feb-14 00:00N 48°42' W 123°30'0 0.0 100 / 11020.7 6.0 7.3
2018-Feb-13 23:00N 48°42' W 123°30'0 0.0 120 / 21021.3 5.6 6.9
2018-Feb-13 22:00N 48°42' W 123°30'0 0.0 180 / 11022.1 5.9 7.2
2018-Feb-13 21:00N 48°42' W 123°30'0 0.0 120 / 41023.6 5.0 6.3
2018-Feb-13 20:00N 48°42' W 123°30'0 0.0 120 / 41024.6 4.5 5.8
2018-Feb-13 19:00N 48°42' W 123°30'0 0.0 250 / 11025.7 3.3 4.6
2018-Feb-13 18:00N 48°42' W 123°30'0 0.0 340 / 11026.1 2.2 3.5
2018-Feb-13 17:00N 48°42' W 123°30'0 0.0 270 / 31027.0 1.1 2.3
2018-Feb-13 16:00N 48°42' W 123°30'0 0.0 300 / 41027.0 0.9 2.1
2018-Feb-13 15:00N 48°42' W 123°30'0 0.0 290 / 21027.0 0.8 2.0
2018-Feb-13 14:00N 48°42' W 123°30'0 0.0 280 / 61027.6 0.8 2.1
2018-Feb-13 13:00N 48°42' W 123°30'0 0.0 280 / 11027.4 0.8 2.0
2018-Feb-13 12:00N 48°42' W 123°30'0 0.0 300 / 51028.2 1.2 2.4
2018-Feb-13 11:00N 48°42' W 123°30'0 0.0 310 / 31028.4 1.3 2.5
2018-Feb-13 10:00N 48°42' W 123°30'0 0.0 240 / 41028.6 1.4 2.6
2018-Feb-13 09:00N 48°42' W 123°30'0 0.0 230 / 21028.6 1.1 2.3
2018-Feb-13 08:00N 48°42' W 123°30'0 0.0 250 / 51028.8 1.8 3.0
2018-Feb-13 07:00N 48°42' W 123°30'0 0.0 1028.9 1.9 3.1
2018-Feb-13 06:00N 48°42' W 123°30'0 0.0 230 / 21028.9 2.0 3.3
2018-Feb-13 05:00N 48°42' W 123°30'0 0.0 1028.6 1.6 2.8
2018-Feb-13 04:00N 48°42' W 123°30'0 0.0 050 / 11028.4 1.8 3.1
2018-Feb-13 03:00N 48°42' W 123°30'0 0.0 1028.2 2.3 3.5
2018-Feb-13 02:00N 48°42' W 123°30'0 0.0 1028.0 3.4 4.7
2018-Feb-13 01:00N 48°42' W 123°30'0 0.0 110 / 21027.7 5.3 6.6
2018-Feb-13 00:00N 48°42' W 123°30'0 0.0 100 / 31027.7 5.4 6.8
2018-Feb-12 23:00N 48°42' W 123°30'0 0.0 100 / 41027.7 5.2 6.5
2018-Feb-12 22:00N 48°42' W 123°30'0 0.0 080 / 21028.1 5.4 6.7
2018-Feb-12 21:00N 48°42' W 123°30'0 0.0 110 / 11028.5 4.6 5.9
2018-Feb-12 19:00N 48°42' W 123°30'0 0.0 060 / 51029.1 3.1 4.3
2018-Feb-12 18:00N 48°42' W 123°30'0 0.0 060 / 61028.5 2.8 4.1
2018-Feb-12 17:00N 48°42' W 123°30'0 0.0 040 / 51028.3 3.2 4.5
2018-Feb-12 16:00N 48°42' W 123°30'0 0.0 1027.8 1.6 2.9
2018-Feb-12 15:00N 48°42' W 123°30'0 0.0 1027.8 2.2 3.4
2018-Feb-12 14:00N 48°42' W 123°30'0 0.0 050 / 41027.5 3.1 4.3
2018-Feb-12 13:00N 48°42' W 123°30'0 0.0 070 / 91026.7 3.0 4.3
2018-Feb-12 12:00N 48°42' W 123°30'0 0.0 070 / 71026.4 3.0 4.3
2018-Feb-12 11:00N 48°42' W 123°30'0 0.0 060 / 91025.6 3.5 4.8
2018-Feb-12 10:00N 48°42' W 123°30'0 0.0 060 / 81025.6 4.0 5.3
2018-Feb-12 09:00N 48°42' W 123°30'0 0.0 060 / 61024.8 4.5 5.7
2018-Feb-12 08:00N 48°42' W 123°30'0 0.0 070 / 41023.9 4.5 5.8
2018-Feb-12 07:00N 48°42' W 123°30'0 0.0 050 / 71022.7 5.3 6.6
2018-Feb-12 06:00N 48°42' W 123°30'0 0.0 080 / 71022.1 5.3 6.6
2018-Feb-12 05:00N 48°42' W 123°30'0 0.0 050 / 51021.0 5.5 6.8
2018-Feb-12 04:00N 48°42' W 123°30'0 0.0 060 / 21019.8 5.4 6.6
2018-Feb-12 03:00N 48°42' W 123°30'0 0.0 1018.6 5.2 6.5
2018-Feb-12 02:00N 48°42' W 123°30'0 0.0 030 / 51017.5 5.7 7.0
2018-Feb-12 01:00N 48°42' W 123°30'0 0.0 010 / 61016.8 6.8 8.1
2018-Feb-12 00:00N 48°42' W 123°30'0 0.0 040 / 51016.4 7.4 8.8
2018-Feb-11 19:00N 48°42' W 123°30'0 0.0 300 / 51016.4 4.4 5.6
2018-Feb-11 18:00N 48°42' W 123°30'0 0.0 260 / 31016.0 4.1 5.3
2018-Feb-11 17:00N 48°42' W 123°30'0 0.0 340 / 41016.1 3.9 5.1
2018-Feb-11 16:00N 48°42' W 123°30'0 0.0 340 / 51015.9 3.8 5.0
2018-Feb-11 15:00N 48°42' W 123°30'0 0.0 300 / 51015.6 3.5 4.7
2018-Feb-11 14:00N 48°42' W 123°30'0 0.0 260 / 41015.9 3.4 4.6
2018-Feb-11 13:00N 48°42' W 123°30'0 0.0 300 / 41016.4 3.3 4.6
2018-Feb-11 12:00N 48°42' W 123°30'0 0.0 310 / 31017.2 3.1 4.3
2018-Feb-11 11:00N 48°42' W 123°30'0 0.0 300 / 51018.0 3.2 4.5
2018-Feb-11 10:00N 48°42' W 123°30'0 0.0 300 / 61018.7 3.1 4.4
2018-Feb-11 07:00N 48°42' W 123°30'0 0.0 280 / 21022.2 4.1 5.3
2018-Feb-11 06:00N 48°42' W 123°30'0 0.0 030 / 21023.5 3.8 5.1
2018-Feb-11 05:00N 48°42' W 123°30'0 0.0 200 / 21024.6 4.1 5.4
2018-Feb-11 04:00N 48°42' W 123°30'0 0.0 050 / 11025.2 4.2 5.4
2018-Feb-11 03:00N 48°42' W 123°30'0 0.0 1026.0 4.0 5.3
2018-Feb-11 02:00N 48°42' W 123°30'0 0.0 100 / 31026.9 4.7 6.0
2018-Feb-11 01:00N 48°42' W 123°30'0 0.0 150 / 11027.1 4.9 6.2
2018-Feb-11 00:00N 48°42' W 123°30'0 0.0 140 / 11028.5 5.1 6.4
2018-Feb-10 23:00N 48°42' W 123°30'0 0.0 110 / 41028.8 5.3 6.6
2018-Feb-10 22:00N 48°42' W 123°30'0 0.0 110 / 51029.4 5.7 7.0
2018-Feb-10 21:00N 48°42' W 123°30'0 0.0 130 / 11030.3 5.6 6.9
2018-Feb-10 20:00N 48°42' W 123°30'0 0.0 350 / 11031.3 4.9 6.2
2018-Feb-10 19:00N 48°42' W 123°30'0 0.0 090 / 31031.7 4.6 5.9
2018-Feb-10 18:00N 48°42' W 123°30'0 0.0 090 / 21031.6 4.3 5.6
2018-Feb-10 17:00N 48°42' W 123°30'0 0.0 120 / 11031.6 3.8 5.1
2018-Feb-10 16:00N 48°42' W 123°30'0 0.0 110 / 21031.3 3.2 4.5
2018-Feb-10 15:00N 48°42' W 123°30'0 0.0 1031.0 3.3 4.6
2018-Feb-10 14:00N 48°42' W 123°30'0 0.0 100 / 31031.1 3.7 4.9
2018-Feb-10 13:00N 48°42' W 123°30'0 0.0 030 / 11030.8 3.6 4.8
2018-Feb-10 12:00N 48°42' W 123°30'0 0.0 080 / 21030.2 3.4 4.7
2018-Feb-10 11:00N 48°42' W 123°30'0 0.0 020 / 21029.8 3.4 4.7
2018-Feb-10 10:00N 48°42' W 123°30'0 0.0 340 / 41029.6 4.1 5.3
2018-Feb-10 09:00N 48°42' W 123°30'0 0.0 010 / 61029.2 4.8 6.1
2018-Feb-10 08:00N 48°42' W 123°30'0 0.0 010 / 21028.9 4.9 6.2
2018-Feb-10 07:00N 48°42' W 123°30'0 0.0 360 / 21028.6 4.9 6.2
2018-Feb-10 06:00N 48°42' W 123°30'0 0.0 040 / 21027.8 4.6 5.8
2018-Feb-10 05:00N 48°42' W 123°30'0 0.0 070 / 41027.5 4.2 5.5
2018-Feb-10 04:00N 48°42' W 123°30'0 0.0 040 / 31027.2 4.7 6.0
2018-Feb-10 03:00N 48°42' W 123°30'0 0.0 060 / 21026.8 5.7 6.9
2018-Feb-10 02:00N 48°42' W 123°30'0 0.0 050 / 31026.2 6.0 7.3
2018-Feb-10 01:00N 48°42' W 123°30'0 0.0 080 / 51026.2 6.2 7.5
2018-Feb-10 00:00N 48°42' W 123°30'0 0.0 060 / 71026.1 6.1 7.4
2018-Feb-09 23:00N 48°42' W 123°30'0 0.0 070 / 61026.0 6.3 7.6
2018-Feb-09 22:00N 48°42' W 123°30'0 0.0 060 / 71025.9 6.7 8.0
2018-Feb-09 21:00N 48°42' W 123°30'0 0.0 030 / 51026.3 7.0 8.4
2018-Feb-09 20:00N 48°42' W 123°30'0 0.0 230 / 11026.6 6.9 8.2
2018-Feb-09 19:00N 48°42' W 123°30'0 0.0 1026.8 5.9 7.2
2018-Feb-09 18:00N 48°42' W 123°30'0 0.0 280 / 11026.6 4.5 5.7
2018-Feb-09 17:00N 48°42' W 123°30'0 0.0 260 / 21026.3 4.1 5.3
2018-Feb-09 16:00N 48°42' W 123°30'0 0.0 240 / 51026.1 3.3 4.5
2018-Feb-09 15:00N 48°42' W 123°30'0 0.0 300 / 21025.6 3.8 5.0
2018-Feb-09 14:00N 48°42' W 123°30'0 0.0 300 / 31025.7 4.1 5.4
2018-Feb-09 13:00N 48°42' W 123°30'0 0.0 280 / 51025.6 4.1 5.4
2018-Feb-09 12:00N 48°42' W 123°30'0 0.0 290 / 71025.3 4.5 5.8
2018-Feb-09 11:00N 48°42' W 123°30'0 0.0 270 / 51025.0 5.0 6.3
2018-Feb-09 10:00N 48°42' W 123°30'0 0.0 330 / 41024.5 5.6 6.9
2018-Feb-09 09:00N 48°42' W 123°30'0 0.0 300 / 61024.2 6.0 7.3
2018-Feb-09 08:00N 48°42' W 123°30'0 0.0 300 / 51024.1 6.7 8.0
2018-Feb-09 07:00N 48°42' W 123°30'0 0.0 310 / 51023.9 6.5 7.8
2018-Feb-09 06:00N 48°42' W 123°30'0 0.0 290 / 51023.1 6.8 8.1
2018-Feb-09 05:00N 48°42' W 123°30'0 0.0 210 / 21022.6 7.2 8.5
2018-Feb-09 04:00N 48°42' W 123°30'0 0.0 200 / 21022.5 7.8 9.1
2018-Feb-09 03:00N 48°42' W 123°30'0 0.0 270 / 61022.2 8.710.1
2018-Feb-09 02:00N 48°42' W 123°30'0 0.0 280 / 91021.5 9.611.0
2018-Feb-09 01:00N 48°42' W 123°30'0 0.0 270 / 91020.8 10.311.7
2018-Feb-09 00:00N 48°42' W 123°30'0 0.0 240 / 111020.6 11.112.5
2018-Feb-08 23:00N 48°42' W 123°30'0 0.0 240 / 141020.1 11.312.7
2018-Feb-08 22:00N 48°42' W 123°30'0 0.0 240 / 161020.0 11.212.6
2018-Feb-08 21:00N 48°42' W 123°30'0 0.0 240 / 191019.7 11.412.8
2018-Feb-08 20:00N 48°42' W 123°30'0 0.0 250 / 61019.9 11.613.0
2018-Feb-08 19:00N 48°42' W 123°30'0 0.0 210 / 31020.1 11.312.7
2018-Feb-08 18:00N 48°42' W 123°30'0 0.0 240 / 91019.9 10.912.3
2018-Feb-08 17:00N 48°42' W 123°30'0 0.0 180 / 11018.8 10.211.6
2018-Feb-08 16:00N 48°42' W 123°30'0 0.0 210 / 31019.0 10.011.4
2018-Feb-08 15:00N 48°42' W 123°30'0 0.0 240 / 61018.8 9.911.2
2018-Feb-08 14:00N 48°42' W 123°30'0 0.0 240 / 141018.5 10.712.1
2018-Feb-08 13:00N 48°42' W 123°30'0 0.0 220 / 61019.0 11.012.4
2018-Feb-08 12:00N 48°42' W 123°30'0 0.0 200 / 61018.9 11.112.5
2018-Feb-08 11:00N 48°42' W 123°30'0 0.0 210 / 81019.7 11.212.6
2018-Feb-08 10:00N 48°42' W 123°30'0 0.0 190 / 71019.7 10.812.2
2018-Feb-08 09:00N 48°42' W 123°30'0 0.0 140 / 31019.6 8.710.1
2018-Feb-08 08:00N 48°42' W 123°30'   170 / 21020.3 9.310.7

Dump ship's entire track history